Flight Track Log - Related Links

Times and Time Zones

All times are in EDT time to prevent confusion due to time zone crossing. See the JBU56 flight status page for this flight to view local times or setup timezone preferences in your user account.

Time Position Orientation Groundspeed Altitude Reporting Facility
EDT Latitude Longitude Course Direction KTS MPH feet Rate Location/Type
Wed 09:06:32 AM 38.9667 -77.5000 360° North 164 189 2,000  Level Potomac TRACON
Wed 09:07:32 AM 39.0167 -77.5000 360° North 206 237 4,700 2,750 Climbing Potomac TRACON
Wed 09:08:32 AM 39.0667 -77.4667 27° Northeast 257 296 7,500 2,737 Climbing Potomac TRACON
Wed 09:09:26 AM 39.1167 -77.4000 46° Northeast 291 335 9,900 1,684 Climbing Potomac TRACON
Wed 09:10:26 AM 39.1167 -77.2833 90° East 366 421 10,700 1,263 Climbing Potomac TRACON
Wed 09:11:01 AM 39.0878 -77.2361 128° Southeast 374 430 11,900 2,438 Climbing Washington Center
Wed 09:12:02 AM 39.0894 -77.1000 89° East 392 451 14,600 2,471 Climbing Washington Center
Wed 09:13:00 AM 39.0994 -76.9583 85° East 398 458 16,800 2,034 Climbing Washington Center
Wed 09:14:00 AM 39.1117 -76.7953 84° East 403 464 18,600 1,884 Climbing Washington Center
Wed 09:15:01 AM 39.1236 -76.6403 84° East 419 482 20,600 1,884 Climbing Washington Center
Wed 09:16:01 AM 39.1331 -76.4800 86° East 431 496 22,400 1,190 Climbing Washington Center
Wed 09:17:02 AM 39.1447 -76.3142 85° East 452 520 23,000 1,160 Climbing Washington Center
Wed 09:18:00 AM 39.1642 -76.1431 82° East 465 535 24,700 1,664 Climbing Washington Center
Wed 09:19:01 AM 39.1836 -75.9639 82° East 486 559 26,300 1,438 Climbing Washington Center
Wed 09:20:01 AM 39.2467 -75.8114 62° Northeast 477 549 27,600 1,190 Climbing Washington Center
Wed 09:21:02 AM 39.3467 -75.6856 44° Northeast 482 555 28,700 1,300 Climbing Washington Center
Wed 09:22:01 AM 39.4469 -75.5567 45° Northeast 489 563 30,200 890 Climbing Washington Center
Wed 09:23:37 AM 39.6100 -75.3439 45° Northeast 511 588 31,000 308 Climbing New York Center
Wed 09:24:37 AM 39.7114 -75.2019 47° Northeast 516 594 31,000  Level New York Center
Wed 09:25:37 AM 39.8106 -75.0542 49° Northeast 532 612 31,000  Level New York Center
Wed 09:26:37 AM 39.9117 -74.9142 47° Northeast 532 612 31,000  Level New York Center
Wed 09:27:37 AM 39.9975 -74.7811 50° Northeast 532 612 31,000  Level New York Center
Wed 09:28:37 AM 40.0939 -74.6375 49° Northeast 532 612 31,000  Level New York Center
Wed 09:29:37 AM 40.1906 -74.4853 50° Northeast 532 612 31,000  Level New York Center
Wed 09:30:37 AM 40.2892 -74.3328 50° Northeast 537 618 31,000  Level New York Center
Wed 09:31:37 AM 40.3872 -74.1825 49° Northeast 537 618 31,000  Level New York Center
Wed 09:32:37 AM 40.4833 -74.0317 50° Northeast 537 618 31,000 -470 Level New York Center
Wed 09:34:23 AM 40.6628 -73.7567 49° Northeast 548 631 29,700 -1,365 Descending Boston Center
Wed 09:35:24 AM 40.7586 -73.6033 50° Northeast 546 628 27,200 -2,311 Descending Boston Center
Wed 09:36:25 AM 40.8508 -73.4572 50° Northeast 521 600 25,000 -1,082 Descending Boston Center
Wed 09:37:26 AM 40.9361 -73.3278 49° Northeast 508 585 25,000 -295 Level Boston Center
Wed 09:38:27 AM 41.0481 -73.1625 48° Northeast 505 581 24,400 -787 Descending Boston Center
Wed 09:39:28 AM 41.1394 -73.0267 48° Northeast 504 580 23,400 -689 Descending Boston Center
Wed 09:40:29 AM 41.2247 -72.8894 50° Northeast 489 563 23,000 -197 Descending Boston Center
Wed 09:41:30 AM 41.2831 -72.7431 62° Northeast 484 557 23,000  Level Boston Center
Wed 09:42:31 AM 41.3436 -72.5803 64° Northeast 486 559 23,000  Level Boston Center
Wed 09:43:33 AM 41.4036 -72.4150 64° Northeast 489 563 23,000  Level Boston Center
Wed 09:44:34 AM 41.4653 -72.2494 64° Northeast 494 568 23,000  Level Boston Center
Wed 09:45:35 AM 41.5386 -72.0492 64° Northeast 498 573 23,000 -738 Level Boston Center
Wed 09:46:36 AM 41.5828 -71.9089 67° East 498 573 21,500 -2,016 Descending Boston Center
Wed 09:47:37 AM 41.6428 -71.7078 68° East 480 552 18,900 -2,361 Descending Boston Center
Wed 09:48:38 AM 41.6897 -71.5544 68° East 454 522 16,700 -2,262 Descending Boston Center
Wed 09:49:39 AM 41.7350 -71.4072 68° East 434 499 14,300 -2,361 Descending Boston Center
Wed 09:50:40 AM 41.7958 -71.2647 60° Northeast 409 471 11,900 -1,623 Descending Boston Center
Wed 09:51:41 AM 41.8239 -71.1350 74° East 363 418 11,000 -439 Descending Boston Center
Wed 09:52:43 AM 41.8303 -71.0156 86° East 315 362 11,000 -98 Level Boston Center
Wed 09:53:44 AM 41.8364 -70.9089 86° East 288 331 10,800 -689 Descending Boston Center
Wed 09:54:45 AM 41.8669 -70.8208 65° Northeast 284 327 9,600 -1,180 Descending Boston Center
Wed 09:55:46 AM 41.9292 -70.7681 32° Northeast 267 307 8,400 -1,180 Descending Boston Center
Wed 09:56:47 AM 41.9925 -70.7203 29° Northeast 262 302 7,200 -1,082 Descending Boston Center
Wed 09:57:48 AM 42.0528 -70.6767 28° Northeast 247 284 6,200 -885 Descending Boston Center
Wed 09:58:49 AM 42.1053 -70.6494 21° North 215 247 5,400 -836 Descending Boston Center
Wed 09:59:50 AM 42.1461 -70.6622 347° North 159 183 4,500 -732 Descending Boston Center
Wed 10:00:52 AM 42.1553 -70.7142 283° West 158 182 3,900 -293 Descending Boston Center
Wed 10:01:53 AM 42.1828 -70.7625 308° West 138 159 3,900 49 Level Boston Center
Wed 10:02:54 AM 42.2106 -70.7986 316° Northwest 138 159 4,000 -148 Climbing Boston Center
Wed 10:03:55 AM 42.2364 -70.8331 315° West 135 155 3,600 -639 Descending Boston Center
Wed 10:04:56 AM 42.2664 -70.8744 314° West 142 163 2,700 -885 Descending Boston Center
Wed 10:05:57 AM 42.2958 -70.9125 316° Northwest 145 167 1,800 -780 Descending Boston Center
Wed 10:06:59 AM 42.3217 -70.9469 315° West 145 167 1,100 -683 Descending Boston Center
Wed 10:08:00 AM 42.3456 -70.9758 318° Northwest 126 145 400 -393 Descending Boston Center
Wed 10:09:01 AM 42.3692 -71.0031 320° Northwest 124 143 300 -98 Descending Boston Center

Login

Don't have an account? Register now (free) for customized features, flight alerts, and more!